createdAt,value
2023-04-12T00:03:20.385Z,67.08
2023-04-12T00:07:24.248Z,67.33
2023-04-12T00:11:27.538Z,67.34
2023-04-12T00:15:30.935Z,67.42
2023-04-12T00:19:35.373Z,67.69
2023-04-12T00:23:39.521Z,67.80
2023-04-12T00:27:42.626Z,67.73
2023-04-12T00:31:45.868Z,67.77
2023-04-12T00:35:50.444Z,68.03
2023-04-12T00:39:53.562Z,68.13
2023-04-12T00:43:57.023Z,68.17
2023-04-12T00:48:00.536Z,68.10
2023-04-12T00:52:10.115Z,68.38
2023-04-12T00:56:13.634Z,68.48
2023-04-12T01:00:17.494Z,68.52
2023-04-12T01:04:22.656Z,68.73
2023-04-12T01:08:37.862Z,68.76
2023-04-12T01:12:51.514Z,69.28
2023-04-12T01:16:59.601Z,69.27
2023-04-12T01:21:09.874Z,69.26
2023-04-12T01:25:26.415Z,69.43
2023-04-12T01:29:33.456Z,69.26
2023-04-12T01:33:39.556Z,69.44
2023-04-12T01:37:43.342Z,69.52
2023-04-12T01:41:49.118Z,69.92
2023-04-12T01:45:54.017Z,69.93
2023-04-12T01:50:04.329Z,70.07
2023-04-12T01:54:11.762Z,70.20
2023-04-12T01:58:18.613Z,70.41
2023-04-12T02:02:23.737Z,70.42
2023-04-12T02:06:28.130Z,70.74
2023-04-12T02:10:31.653Z,70.50
2023-04-12T02:14:35.023Z,70.83
2023-04-12T02:18:41.619Z,71.01
2023-04-12T02:22:47.451Z,71.14
2023-04-12T02:26:50.908Z,71.17
2023-04-12T02:30:54.737Z,70.90
2023-04-12T02:35:02.904Z,70.88
2023-04-12T02:39:07.917Z,71.31
2023-04-12T02:43:12.135Z,71.10
2023-04-12T02:47:19.894Z,71.10
2023-04-12T02:51:28.213Z,71.30
2023-04-12T02:55:33.714Z,71.50
2023-04-12T02:59:41.446Z,71.37
2023-04-12T03:03:50.555Z,71.59
2023-04-12T03:08:12.258Z,71.03
2023-04-12T03:12:22.899Z,70.91
2023-04-12T03:16:41.093Z,70.74
2023-04-12T03:20:49.844Z,70.74
2023-04-12T03:24:55.419Z,70.71
2023-04-12T03:29:02.061Z,70.76
2023-04-12T03:33:09.136Z,70.77
2023-04-12T03:37:12.972Z,71.05
2023-04-12T03:41:23.397Z,71.19
2023-04-12T03:45:26.999Z,71.37
2023-04-12T03:49:33.666Z,71.64
2023-04-12T03:53:38.212Z,71.75
2023-04-12T03:57:43.618Z,72.05
2023-04-12T04:01:48.526Z,71.77
2023-04-12T04:15:27.115Z,71.63
2023-04-12T04:19:32.500Z,71.50
2023-04-12T04:23:39.233Z,71.86
2023-04-12T04:27:45.100Z,71.64
2023-04-12T04:31:50.266Z,71.65
2023-04-12T04:36:10.061Z,71.63
2023-04-12T04:40:21.328Z,71.65
2023-04-12T04:44:28.420Z,71.85
2023-04-12T04:48:32.834Z,71.96
2023-04-12T04:57:06.493Z,72.01
2023-04-12T05:01:13.566Z,72.39
2023-04-12T05:05:18.614Z,72.62
2023-04-12T05:09:44.362Z,73.21
2023-04-12T05:13:48.377Z,73.50
2023-04-12T05:17:52.366Z,73.76
2023-04-12T05:21:56.597Z,74.14
2023-04-12T05:26:02.526Z,74.42
2023-04-12T05:30:22.100Z,74.62
2023-04-12T05:34:35.172Z,74.96
2023-04-12T05:38:40.976Z,75.01
2023-04-12T05:42:52.566Z,74.91
2023-04-12T05:47:02.098Z,75.05
2023-04-12T05:51:09.188Z,75.28
2023-04-12T05:55:13.820Z,75.65
2023-04-12T05:59:30.524Z,75.51
2023-04-12T06:03:43.889Z,75.42
2023-04-12T06:08:09.626Z,75.54
2023-04-12T06:12:25.279Z,75.54
2023-04-12T06:20:59.520Z,74.86
2023-04-12T06:25:09.815Z,74.64
2023-04-12T06:29:24.929Z,73.29
2023-04-12T06:33:45.650Z,72.11
2023-04-12T06:37:56.830Z,71.35
2023-04-12T06:42:07.379Z,70.80
2023-04-12T06:46:21.320Z,69.94
2023-04-12T06:50:39.769Z,69.13
2023-04-12T06:55:02.171Z,68.66
2023-04-12T07:07:48.002Z,65.22
2023-04-12T07:11:51.082Z,65.32
2023-04-12T07:15:54.556Z,65.31
2023-04-12T07:19:57.578Z,64.77
2023-04-12T07:24:01.972Z,64.34
2023-04-12T07:28:07.001Z,64.09
2023-04-12T07:32:11.958Z,63.70
2023-04-12T07:36:16.635Z,63.44
2023-04-12T07:40:21.510Z,62.97
2023-04-12T07:44:24.605Z,61.95
2023-04-12T07:48:27.875Z,61.66
2023-04-12T07:52:30.955Z,60.72
2023-04-12T07:56:36.766Z,60.21
2023-04-12T08:00:39.783Z,60.09
2023-04-12T08:04:44.933Z,59.81
2023-04-12T08:08:48.185Z,59.81
2023-04-12T08:12:52.583Z,60.10
2023-04-12T08:16:55.581Z,60.15
2023-04-12T08:20:59.142Z,59.28
2023-04-12T08:25:02.203Z,58.26
2023-04-12T08:29:07.029Z,58.36
2023-04-12T08:33:10.073Z,57.89
2023-04-12T08:37:13.146Z,56.83
2023-04-12T08:41:16.733Z,56.30
2023-04-12T08:45:23.835Z,56.00
2023-04-12T08:49:27.112Z,54.67
2023-04-12T08:53:30.159Z,54.68
2023-04-12T08:57:33.927Z,55.05
2023-04-12T09:01:41.912Z,54.61
2023-04-12T09:05:45.106Z,54.48
2023-04-12T09:09:49.342Z,53.41
2023-04-12T09:13:52.447Z,53.21
2023-04-12T09:18:08.718Z,52.83
2023-04-12T09:22:11.787Z,50.75
2023-04-12T09:26:28.650Z,50.84
2023-04-12T10:06:18.538Z,48.17
2023-04-12T10:10:22.456Z,47.53
2023-04-12T10:14:29.253Z,46.01
2023-04-12T10:18:32.775Z,46.59
2023-04-12T10:22:37.439Z,46.40
2023-04-12T10:26:43.654Z,46.30
2023-04-12T10:30:48.234Z,45.10
2023-04-12T10:34:53.059Z,45.02
2023-04-12T10:39:12.125Z,45.20
2023-04-12T10:43:28.029Z,43.88
2023-04-12T10:48:01.906Z,43.88
2023-04-12T10:52:18.125Z,44.08
2023-04-12T10:56:40.020Z,44.19
2023-04-12T11:01:11.661Z,44.50
2023-04-12T11:05:19.236Z,42.00
2023-04-12T11:09:28.533Z,41.61
2023-04-12T11:13:37.031Z,41.85
2023-04-12T11:17:40.054Z,41.78
2023-04-12T11:21:43.489Z,41.74
2023-04-12T11:25:51.126Z,42.06
2023-04-12T11:29:57.143Z,40.10
2023-04-12T11:34:01.138Z,40.80
2023-04-12T11:38:04.929Z,40.66
2023-04-12T11:42:09.396Z,39.54
2023-04-12T11:46:14.054Z,38.95
2023-04-12T11:50:29.862Z,38.16
2023-04-12T11:54:34.218Z,38.42
2023-04-12T11:58:37.146Z,39.15
2023-04-12T12:02:52.244Z,38.55
2023-04-12T12:07:00.339Z,37.39
2023-04-12T12:11:07.908Z,36.49
2023-04-12T12:15:11.963Z,37.30
2023-04-12T12:19:16.216Z,38.14
2023-04-12T12:23:32.120Z,38.16
2023-04-12T12:27:37.340Z,39.03
2023-04-12T12:31:47.761Z,38.17
2023-04-12T12:35:58.054Z,38.13
2023-04-12T12:40:11.284Z,38.63
2023-04-12T12:44:14.408Z,38.59
2023-04-12T12:48:19.358Z,38.23
2023-04-12T12:52:23.963Z,38.60
2023-04-12T12:56:27.051Z,39.05
2023-04-12T13:00:31.584Z,38.50
2023-04-12T13:04:35.084Z,38.69
2023-04-12T13:08:39.406Z,38.75
2023-04-12T13:12:42.452Z,38.61
2023-04-12T13:16:46.110Z,38.28
2023-04-12T13:20:49.299Z,38.26
2023-04-12T13:24:53.552Z,38.41
2023-04-12T13:28:56.879Z,38.72
2023-04-12T13:33:00.331Z,39.15
2023-04-12T13:37:04.024Z,39.01
2023-04-12T13:41:08.741Z,38.91
2023-04-12T13:45:12.889Z,38.81
2023-04-12T13:49:15.764Z,39.09
2023-04-12T13:53:18.684Z,39.26
2023-04-12T13:57:23.557Z,39.80
2023-04-12T14:01:27.034Z,40.24
2023-04-12T14:05:30.074Z,40.43
2023-04-12T14:09:33.817Z,40.73
2023-04-12T14:13:38.272Z,41.06
2023-04-12T14:17:41.361Z,41.39
2023-04-12T14:21:44.349Z,41.20
2023-04-12T14:25:47.267Z,41.64
2023-04-12T14:29:51.530Z,41.83
2023-04-12T14:33:54.454Z,42.34
2023-04-12T14:37:57.461Z,42.08
2023-04-12T14:42:01.320Z,42.63
2023-04-12T14:46:05.987Z,43.17
2023-04-12T14:50:09.516Z,43.15
2023-04-12T14:54:12.400Z,42.90
2023-04-12T14:58:15.320Z,42.63
2023-04-12T15:02:22.158Z,43.11
2023-04-12T15:06:27.203Z,43.95
2023-04-12T15:10:31.531Z,43.78
2023-04-12T15:14:34.629Z,44.01
2023-04-12T15:18:41.682Z,43.81
2023-04-12T15:22:44.995Z,43.55
2023-04-12T15:26:48.725Z,42.92
2023-04-12T15:30:51.814Z,41.31
2023-04-12T15:34:56.647Z,42.40
2023-04-12T15:38:59.554Z,41.56
2023-04-12T15:43:02.448Z,41.77
2023-04-12T15:47:11.033Z,41.56
2023-04-12T15:51:16.534Z,41.51
2023-04-12T15:55:21.856Z,42.03
2023-04-12T15:59:24.749Z,42.35
2023-04-12T16:03:27.730Z,42.66
2023-04-12T16:07:33.901Z,42.41
2023-04-12T16:11:37.215Z,42.51
2023-04-12T16:15:40.759Z,42.59
2023-04-12T16:19:43.806Z,43.06
2023-04-12T16:23:49.196Z,42.84
2023-04-12T16:27:52.308Z,43.17
2023-04-12T16:31:55.302Z,43.22
2023-04-12T16:35:58.485Z,43.32
2023-04-12T16:40:05.065Z,43.63
2023-04-12T16:44:08.027Z,43.86
2023-04-12T16:48:11.754Z,43.83
2023-04-12T16:52:15.466Z,44.42
2023-04-12T16:56:19.989Z,44.30
2023-04-12T17:00:23.804Z,44.76
2023-04-12T17:04:26.810Z,45.17
2023-04-12T17:08:29.790Z,45.00
2023-04-12T17:12:34.101Z,45.45
2023-04-12T17:16:37.332Z,45.64
2023-04-12T17:20:40.510Z,45.69
2023-04-12T17:24:43.993Z,46.34
2023-04-12T17:28:48.347Z,47.67
2023-04-12T17:32:52.287Z,48.08
2023-04-12T17:36:55.713Z,48.40
2023-04-12T17:40:58.694Z,47.82
2023-04-12T17:45:03.465Z,48.05
2023-04-12T17:49:06.720Z,48.51
2023-04-12T17:53:09.709Z,49.43
2023-04-12T17:57:13.440Z,49.68
2023-04-12T18:01:17.871Z,49.58
2023-04-12T18:05:20.829Z,49.43
2023-04-12T18:09:23.776Z,49.27
2023-04-12T18:13:27.232Z,49.64
2023-04-12T18:17:32.032Z,49.66
2023-04-12T18:21:35.852Z,49.59
2023-04-12T18:25:39.789Z,49.84
2023-04-12T18:29:42.685Z,49.73
2023-04-12T18:33:47.794Z,49.81
2023-04-12T18:37:50.767Z,50.13
2023-04-12T18:41:54.216Z,50.54
2023-04-12T18:45:57.173Z,50.66
2023-04-12T18:50:01.671Z,50.63
2023-04-12T18:54:05.199Z,50.82
2023-04-12T18:58:08.240Z,51.26
2023-04-12T19:02:12.253Z,51.28
2023-04-12T19:06:17.059Z,51.46
2023-04-12T19:10:20.083Z,52.00
2023-04-12T19:14:23.651Z,51.98
2023-04-12T19:18:29.986Z,51.83
2023-04-12T19:22:34.278Z,52.08
2023-04-12T19:26:39.945Z,52.39
2023-04-12T19:30:42.867Z,52.70
2023-04-12T19:34:46.639Z,53.38
2023-04-12T19:38:51.866Z,53.95
2023-04-12T19:42:55.038Z,54.23
2023-04-12T19:46:57.947Z,54.36
2023-04-12T19:51:00.956Z,54.57
2023-04-12T19:55:05.962Z,54.50
2023-04-12T19:59:10.556Z,54.36
2023-04-12T20:03:13.477Z,54.71
2023-04-12T20:07:16.440Z,55.12
2023-04-12T20:11:21.508Z,54.97
2023-04-12T20:15:24.596Z,54.90
2023-04-12T20:19:28.184Z,55.11
2023-04-12T20:23:31.993Z,55.80
2023-04-12T20:27:36.687Z,56.51
2023-04-12T20:31:39.613Z,56.81
2023-04-12T20:35:43.362Z,56.74
2023-04-12T20:39:46.336Z,56.97
2023-04-12T20:43:50.905Z,57.13
2023-04-12T20:47:53.838Z,57.46
2023-04-12T20:51:57.241Z,57.62
2023-04-12T20:56:00.222Z,57.70
2023-04-12T21:00:12.488Z,57.61
2023-04-12T21:04:15.613Z,57.99
2023-04-12T21:08:18.752Z,58.43
2023-04-12T21:12:21.666Z,58.92
2023-04-12T21:16:26.264Z,59.16
2023-04-12T21:20:30.400Z,58.72
2023-04-12T21:24:38.097Z,58.58
2023-04-12T21:28:41.040Z,58.70
2023-04-12T21:32:45.600Z,58.49
2023-04-12T21:36:48.608Z,58.16
2023-04-12T21:40:52.017Z,58.40
2023-04-12T21:44:54.952Z,58.59
2023-04-12T21:48:59.433Z,58.60
2023-04-12T21:53:02.505Z,58.83
2023-04-12T21:57:06.249Z,58.70
2023-04-12T22:01:09.264Z,58.99
2023-04-12T22:05:13.632Z,59.04
2023-04-12T22:09:16.549Z,58.80
2023-04-12T22:13:23.615Z,59.13
2023-04-12T22:17:26.644Z,59.66
2023-04-12T22:21:31.019Z,60.02
2023-04-12T22:25:35.219Z,60.53
2023-04-12T22:29:38.439Z,60.60
2023-04-12T22:33:41.382Z,60.87
2023-04-12T22:37:45.688Z,60.99
2023-04-12T22:41:49.725Z,61.29
2023-04-12T22:45:54.129Z,61.29
2023-04-12T22:49:58.213Z,61.91
2023-04-12T22:54:06.081Z,62.15
2023-04-12T22:58:09.197Z,62.20
2023-04-12T23:02:12.215Z,62.67
2023-04-12T23:06:15.246Z,62.86
2023-04-12T23:10:20.634Z,62.65
2023-04-12T23:14:23.913Z,63.10
2023-04-12T23:18:27.426Z,63.16
2023-04-12T23:22:56.125Z,63.45
2023-04-12T23:27:03.015Z,63.31
2023-04-12T23:31:07.024Z,63.35
2023-04-12T23:35:10.662Z,63.32
2023-04-12T23:39:13.617Z,63.06
2023-04-12T23:43:17.883Z,63.38
2023-04-12T23:47:20.765Z,63.62
2023-04-12T23:51:23.708Z,63.84
2023-04-12T23:55:26.745Z,64.01
2023-04-12T23:59:31.548Z,64.42
